createdAt,value
2018-07-24T00:00:36.701Z,21.07
2018-07-24T00:03:04.887Z,22.10
2018-07-24T00:05:32.973Z,20.17
2018-07-24T00:08:01.033Z,21.67
2018-07-24T00:10:29.109Z,22.17
2018-07-24T00:12:56.969Z,22.00
2018-07-24T00:15:25.045Z,21.80
2018-07-24T00:17:53.113Z,21.80
2018-07-24T00:20:21.193Z,22.03
2018-07-24T00:22:49.265Z,22.20
2018-07-24T00:25:17.338Z,20.80
2018-07-24T00:27:45.373Z,20.87
2018-07-24T00:30:13.421Z,20.70
2018-07-24T00:32:41.477Z,21.43
2018-07-24T00:35:09.535Z,20.07
2018-07-24T00:37:37.594Z,21.40
2018-07-24T00:40:05.649Z,22.17
2018-07-24T00:42:33.725Z,22.10
2018-07-24T00:45:01.794Z,21.63
2018-07-24T00:47:29.691Z,22.60
2018-07-24T00:49:57.725Z,23.33
2018-07-24T00:52:25.782Z,24.50
2018-07-24T00:54:53.846Z,23.47
2018-07-24T00:57:21.885Z,24.07
2018-07-24T00:59:49.967Z,23.57
2018-07-24T01:02:18.046Z,23.40
2018-07-24T01:04:46.106Z,23.53
2018-07-24T01:07:14.173Z,24.50
2018-07-24T01:09:42.225Z,25.23
2018-07-24T01:12:10.305Z,25.00
2018-07-24T01:14:38.220Z,25.57
2018-07-24T01:17:06.312Z,24.53
2018-07-24T01:19:34.366Z,24.60
2018-07-24T01:22:02.225Z,24.63
2018-07-24T01:24:30.092Z,25.17
2018-07-24T01:26:58.169Z,24.40
2018-07-24T01:29:26.254Z,23.27
2018-07-24T01:31:54.310Z,23.17
2018-07-24T01:34:22.358Z,23.57
2018-07-24T01:36:50.432Z,24.53
2018-07-24T01:39:18.481Z,24.03
2018-07-24T01:41:46.560Z,23.67
2018-07-24T01:44:14.638Z,23.60
2018-07-24T01:46:42.691Z,24.60
2018-07-24T01:49:10.542Z,24.43
2018-07-24T01:51:38.643Z,24.20
2018-07-24T01:54:06.722Z,22.60
2018-07-24T01:56:34.754Z,24.20
2018-07-24T01:59:02.813Z,25.37
2018-07-24T02:01:30.966Z,24.77
2018-07-24T02:03:59.014Z,26.70
2018-07-24T02:06:27.098Z,25.93
2018-07-24T02:08:55.147Z,25.33
2018-07-24T02:11:23.218Z,27.03
2018-07-24T02:13:51.297Z,25.83
2018-07-24T02:16:19.901Z,26.13
2018-07-24T02:18:47.982Z,25.67
2018-07-24T02:21:16.062Z,27.07
2018-07-24T02:23:44.131Z,27.23
2018-07-24T02:26:12.210Z,28.33
2018-07-24T02:28:40.302Z,26.47
2018-07-24T02:31:08.372Z,26.03
2018-07-24T02:33:36.438Z,28.50
2018-07-24T02:36:04.498Z,27.17
2018-07-24T02:38:32.550Z,26.67
2018-07-24T02:41:00.630Z,27.97
2018-07-24T02:43:28.702Z,26.97
2018-07-24T02:45:56.782Z,27.57
2018-07-24T02:48:24.871Z,28.20
2018-07-24T02:50:52.942Z,28.33
2018-07-24T02:53:20.986Z,26.10
2018-07-24T02:55:49.050Z,26.37
2018-07-24T02:58:17.115Z,26.90
2018-07-24T03:00:45.174Z,28.70
2018-07-24T03:03:13.251Z,28.70
2018-07-24T03:05:41.330Z,28.67
2018-07-24T03:08:09.390Z,28.60
2018-07-24T03:10:37.458Z,27.80
2018-07-24T03:13:05.522Z,28.60
2018-07-24T03:15:33.590Z,27.50
2018-07-24T03:18:01.634Z,26.00
2018-07-24T03:20:29.698Z,25.40
2018-07-24T03:22:57.776Z,27.90
2018-07-24T03:25:25.813Z,27.60
2018-07-24T03:27:53.891Z,27.00
2018-07-24T03:30:21.960Z,27.03
2018-07-24T03:32:50.027Z,27.60
2018-07-24T03:35:17.852Z,29.83
2018-07-24T03:37:45.902Z,27.83
2018-07-24T03:40:13.960Z,28.53
2018-07-24T03:42:42.034Z,28.57
2018-07-24T03:45:10.114Z,29.37
2018-07-24T03:47:37.938Z,28.63
2018-07-24T03:50:05.999Z,28.90
2018-07-24T03:52:34.046Z,29.67
2018-07-24T03:55:01.883Z,29.17
2018-07-24T03:57:29.934Z,28.07
2018-07-24T03:59:58.002Z,28.83
2018-07-24T04:02:26.085Z,25.03
2018-07-24T04:04:54.100Z,28.03
2018-07-24T04:07:22.162Z,25.57
2018-07-24T04:09:50.206Z,23.93
2018-07-24T04:12:18.262Z,28.20
2018-07-24T04:14:46.327Z,26.70
2018-07-24T04:17:14.375Z,27.13
2018-07-24T04:19:42.454Z,26.63
2018-07-24T04:22:10.522Z,29.67
2018-07-24T04:24:38.358Z,28.70
2018-07-24T04:27:06.613Z,28.40
2018-07-24T04:29:34.663Z,28.43
2018-07-24T04:32:02.741Z,33.03
2018-07-24T04:34:30.783Z,31.43
2018-07-24T04:36:58.850Z,31.87
2018-07-24T04:39:26.890Z,31.90
2018-07-24T04:41:54.942Z,32.53
2018-07-24T04:44:23.010Z,32.80
2018-07-24T04:46:51.054Z,32.90
2018-07-24T04:49:19.128Z,35.47
2018-07-24T04:51:47.173Z,33.17
2018-07-24T04:54:15.223Z,34.20
2018-07-24T04:56:43.278Z,33.03
2018-07-24T04:59:11.341Z,33.40
2018-07-24T05:01:39.391Z,31.77
2018-07-24T05:04:07.646Z,32.37
2018-07-24T05:06:35.693Z,34.47
2018-07-24T05:09:05.650Z,32.87
2018-07-24T05:11:33.710Z,32.60
2018-07-24T05:14:01.775Z,31.60
2018-07-24T05:16:29.841Z,29.90
2018-07-24T05:18:57.879Z,31.33
2018-07-24T05:21:25.934Z,32.13
2018-07-24T05:23:53.991Z,32.83
2018-07-24T05:26:22.049Z,32.43
2018-07-24T05:28:50.106Z,32.93
2018-07-24T05:31:18.214Z,32.47
2018-07-24T05:33:46.254Z,31.57
2018-07-24T05:36:14.301Z,31.13
2018-07-24T05:38:42.415Z,30.33
2018-07-24T05:41:10.470Z,28.53
2018-07-24T05:43:38.301Z,29.70
2018-07-24T05:46:06.355Z,30.67
2018-07-24T05:48:34.436Z,29.00
2018-07-24T05:51:02.475Z,27.70
2018-07-24T05:53:30.543Z,28.23
2018-07-24T05:55:58.593Z,27.40
2018-07-24T05:58:26.426Z,25.13
2018-07-24T06:00:54.482Z,24.87
2018-07-24T06:03:22.549Z,25.43
2018-07-24T06:05:50.614Z,25.33
2018-07-24T06:08:18.446Z,23.93
2018-07-24T06:10:46.694Z,23.33
2018-07-24T06:13:14.847Z,23.57
2018-07-24T06:15:42.813Z,23.03
2018-07-24T06:18:10.863Z,25.10
2018-07-24T06:20:38.926Z,23.60
2018-07-24T06:23:06.990Z,22.93
2018-07-24T06:25:35.072Z,23.03
2018-07-24T06:28:03.126Z,23.23
2018-07-24T06:30:30.974Z,23.00
2018-07-24T06:32:58.809Z,24.43
2018-07-24T06:35:26.866Z,23.30
2018-07-24T06:37:54.914Z,24.47
2018-07-24T06:40:22.958Z,25.57
2018-07-24T06:42:51.020Z,25.47
2018-07-24T06:45:19.077Z,28.77
2018-07-24T06:47:47.135Z,29.13
2018-07-24T06:50:15.186Z,28.67
2018-07-24T06:52:43.250Z,52.57
2018-07-24T06:55:11.313Z,60.30
2018-07-24T06:57:39.978Z,54.10
2018-07-24T07:00:08.036Z,53.27
2018-07-24T07:02:36.106Z,47.53
2018-07-24T07:05:04.197Z,53.30
2018-07-24T07:07:32.207Z,59.37
2018-07-24T07:10:00.246Z,58.43
2018-07-24T07:12:28.304Z,56.63
2018-07-24T07:14:56.342Z,55.93
2018-07-24T07:17:24.406Z,58.23
2018-07-24T07:19:52.484Z,67.97
2018-07-24T07:22:20.538Z,63.03
2018-07-24T07:24:48.581Z,61.43
2018-07-24T07:27:16.635Z,55.17
2018-07-24T07:29:44.689Z,66.00
2018-07-24T07:32:12.925Z,53.43
2018-07-24T07:34:40.924Z,53.10
2018-07-24T07:37:08.978Z,55.77
2018-07-24T07:39:37.046Z,58.85
2018-07-24T07:44:32.481Z,40.20
2018-07-24T07:47:00.549Z,34.83
2018-07-24T07:49:28.610Z,32.17
2018-07-24T07:51:56.646Z,27.67
2018-07-24T07:54:24.712Z,26.90
2018-07-24T07:56:52.782Z,27.85
2018-07-24T07:59:20.998Z,22.35
2018-07-24T08:04:16.248Z,19.00
2018-07-24T08:06:44.269Z,16.43
2018-07-24T08:11:40.830Z,13.90
2018-07-24T08:19:03.698Z,12.40
2018-07-24T08:23:59.158Z,13.65
2018-07-24T08:26:27.205Z,13.70
2018-07-24T08:28:55.346Z,11.85
2018-07-24T08:31:23.397Z,11.38
2018-07-24T08:33:51.497Z,11.85
2018-07-24T08:36:19.534Z,13.38
2018-07-24T08:38:47.606Z,11.63
2018-07-24T08:41:15.650Z,11.35
2018-07-24T08:43:43.726Z,12.18
2018-07-24T08:46:11.790Z,13.78
2018-07-24T08:48:39.848Z,12.28
2018-07-24T08:51:07.899Z,11.90
2018-07-24T08:53:36.112Z,11.63
2018-07-24T08:56:04.014Z,13.18
2018-07-24T08:58:32.054Z,13.98
2018-07-24T09:01:00.132Z,11.38
2018-07-24T09:03:28.238Z,17.73
2018-07-24T09:05:56.254Z,9.68
2018-07-24T09:08:24.074Z,11.25
2018-07-24T09:10:52.125Z,10.98
2018-07-24T09:13:20.167Z,10.00
2018-07-24T09:15:48.246Z,10.25
2018-07-24T09:18:16.285Z,10.53
2018-07-24T10:17:14.119Z,7.53
2018-07-24T10:19:41.951Z,7.92
2018-07-24T10:24:37.371Z,7.30
2018-07-24T10:29:32.800Z,6.83
2018-07-24T10:32:00.845Z,7.72
2018-07-24T10:34:28.907Z,9.45
2018-07-24T10:36:56.949Z,5.85
2018-07-24T10:41:52.381Z,6.15
2018-07-24T10:44:20.431Z,5.80
2018-07-24T10:46:48.486Z,6.40
2018-07-24T10:49:16.557Z,5.90
2018-07-24T10:54:11.974Z,6.67
2018-07-24T10:56:40.020Z,9.18
2018-07-24T10:59:08.071Z,5.15
2018-07-24T11:01:36.109Z,5.58
2018-07-24T11:04:04.166Z,5.55
2018-07-24T11:06:32.206Z,5.17
2018-07-24T11:09:00.255Z,5.62
2018-07-24T11:11:28.302Z,5.28
2018-07-24T11:13:56.349Z,6.70
2018-07-24T11:18:51.798Z,5.45
2018-07-24T11:21:19.858Z,6.37
2018-07-24T11:23:47.887Z,8.30
2018-07-24T11:28:43.466Z,5.60
2018-07-24T11:31:11.538Z,5.05
2018-07-24T11:33:39.578Z,4.75
2018-07-24T11:36:07.722Z,4.60
2018-07-24T11:43:30.440Z,6.12
2018-07-24T11:45:58.269Z,4.95
2018-07-24T13:07:03.010Z,8.23
2018-07-24T13:09:31.071Z,4.70
2018-07-24T13:34:05.234Z,3.85
2018-07-24T13:36:33.305Z,3.95
2018-07-24T13:39:01.346Z,3.80
2018-07-24T13:46:23.737Z,4.58
2018-07-24T13:48:51.794Z,4.47
2018-07-24T13:56:14.609Z,4.45
2018-07-24T13:58:42.674Z,3.75
2018-07-24T14:01:10.723Z,4.33
2018-07-24T14:30:39.983Z,22.42
2018-07-24T14:33:08.239Z,3.95
2018-07-24T14:45:26.278Z,2.80
2018-07-24T14:47:54.299Z,4.03
2018-07-24T14:50:22.334Z,3.45
2018-07-24T14:55:17.858Z,5.30
2018-07-24T15:12:30.333Z,5.33
2018-07-24T15:17:25.770Z,7.50
2018-07-24T15:19:53.815Z,4.00
2018-07-24T15:22:21.726Z,4.30
2018-07-24T15:37:06.711Z,3.90
2018-07-24T15:46:56.951Z,4.60
2018-07-24T15:51:52.374Z,3.72
2018-07-24T15:54:20.793Z,4.60
2018-07-24T16:04:10.615Z,3.52
2018-07-24T16:06:38.649Z,3.42
2018-07-24T16:14:02.671Z,4.03
2018-07-24T16:16:30.742Z,3.50
2018-07-24T16:18:58.781Z,3.60
2018-07-24T17:32:41.190Z,3.52
2018-07-24T17:35:09.240Z,3.70
2018-07-24T17:37:37.290Z,3.72
2018-07-24T17:40:05.379Z,3.80
2018-07-24T17:42:33.198Z,3.83
2018-07-24T17:45:01.234Z,3.80
2018-07-24T17:47:29.286Z,3.45
2018-07-24T17:49:57.350Z,3.83
2018-07-24T17:52:25.399Z,4.30
2018-07-24T17:57:20.862Z,3.80
2018-07-24T17:59:48.932Z,3.55
2018-07-24T18:02:16.969Z,3.85
2018-07-24T18:04:45.003Z,5.05
2018-07-24T18:09:40.229Z,3.95
2018-07-24T18:12:08.994Z,4.12
2018-07-24T18:14:36.882Z,4.40
2018-07-24T18:17:04.946Z,4.90
2018-07-24T18:19:32.998Z,4.08
2018-07-24T18:22:01.064Z,4.00
2018-07-24T18:24:29.114Z,4.28
2018-07-24T18:26:57.365Z,4.85
2018-07-24T18:29:25.548Z,5.97
2018-07-24T18:31:53.602Z,4.87
2018-07-24T18:34:21.645Z,4.05
2018-07-24T18:44:11.858Z,7.00
2018-07-24T18:49:07.081Z,4.60
2018-07-24T18:54:02.522Z,5.00
2018-07-24T18:56:30.570Z,5.05
2018-07-24T18:58:58.611Z,4.65
2018-07-24T19:01:26.666Z,5.25
2018-07-24T19:03:54.714Z,4.65
2018-07-24T19:06:22.762Z,6.30
2018-07-24T19:08:50.946Z,6.53
2018-07-24T19:11:19.081Z,5.03
2018-07-24T19:13:47.054Z,4.97
2018-07-24T19:16:15.106Z,5.42
2018-07-24T19:18:43.175Z,6.47
2018-07-24T19:21:11.254Z,5.45
2018-07-24T19:23:39.326Z,5.17
2018-07-24T19:26:07.170Z,5.55
2018-07-24T19:28:35.017Z,5.53
2018-07-24T19:31:03.168Z,5.45
2018-07-24T19:33:31.114Z,10.75
2018-07-24T19:35:59.366Z,6.60
2018-07-24T19:38:27.442Z,5.20
2018-07-24T19:40:55.515Z,5.57
2018-07-24T19:43:23.568Z,8.75
2018-07-24T19:45:51.642Z,7.08
2018-07-24T19:48:19.710Z,7.53
2018-07-24T19:50:47.771Z,6.17
2018-07-24T19:53:15.814Z,6.90
2018-07-24T19:55:43.857Z,5.05
2018-07-24T19:58:12.345Z,6.10
2018-07-24T20:00:40.386Z,5.50
2018-07-24T20:03:08.437Z,5.45
2018-07-24T20:05:36.511Z,5.78
2018-07-24T20:08:04.606Z,5.83
2018-07-24T20:10:32.677Z,5.60
2018-07-24T20:15:28.159Z,6.80
2018-07-24T20:37:42.068Z,6.55
2018-07-24T20:42:37.297Z,6.90
2018-07-24T20:45:05.810Z,6.42
2018-07-24T20:47:33.874Z,6.90
2018-07-24T20:50:01.919Z,6.37
2018-07-24T20:52:29.986Z,6.50
2018-07-24T20:54:58.021Z,6.62
2018-07-24T20:57:26.086Z,6.15
2018-07-24T20:59:54.142Z,8.18
2018-07-24T21:02:22.236Z,6.20
2018-07-24T21:04:50.270Z,7.60
2018-07-24T21:07:18.326Z,6.90
2018-07-24T21:19:35.783Z,6.70
2018-07-24T21:22:03.867Z,7.55
2018-07-24T21:24:31.916Z,7.28
2018-07-24T21:26:59.957Z,15.48
2018-07-24T21:29:28.002Z,9.28
2018-07-24T21:31:56.066Z,9.20
2018-07-24T21:34:24.126Z,8.10
2018-07-24T21:41:46.949Z,7.55
2018-07-24T21:51:37.194Z,7.80
2018-07-24T21:54:05.263Z,8.20
2018-07-24T22:03:55.473Z,6.60
2018-07-24T23:39:45.225Z,10.67
2018-07-24T23:42:13.302Z,11.37
2018-07-24T23:44:41.374Z,11.17
2018-07-24T23:47:09.467Z,10.47
2018-07-24T23:49:37.575Z,11.47
2018-07-24T23:52:05.658Z,10.80
2018-07-24T23:54:33.739Z,11.33
2018-07-24T23:57:01.777Z,11.50
2018-07-24T23:59:29.887Z,10.47
